sensor_id;sensor_type;location;lat;lon;timestamp;temperature;humidity
50606;DHT22;36557;53.572;10.170;2023-02-28T00:00:10;2.40;99.90
50606;DHT22;36557;53.572;10.170;2023-02-28T00:02:38;2.40;99.90
50606;DHT22;36557;53.572;10.170;2023-02-28T00:05:05;2.40;99.90
50606;DHT22;36557;53.572;10.170;2023-02-28T00:07:32;2.40;99.90
50606;DHT22;36557;53.572;10.170;2023-02-28T00:09:58;2.40;99.90
50606;DHT22;36557;53.572;10.170;2023-02-28T00:12:24;2.40;99.90
50606;DHT22;36557;53.572;10.170;2023-02-28T00:14:50;2.40;99.90
50606;DHT22;36557;53.572;10.170;2023-02-28T00:17:16;2.30;99.90
50606;DHT22;36557;53.572;10.170;2023-02-28T00:19:49;2.30;99.90
50606;DHT22;36557;53.572;10.170;2023-02-28T00:22:18;2.30;99.90
50606;DHT22;36557;53.572;10.170;2023-02-28T00:24:44;2.30;99.90
50606;DHT22;36557;53.572;10.170;2023-02-28T00:27:10;2.30;99.90
50606;DHT22;36557;53.572;10.170;2023-02-28T00:29:36;2.20;99.90
50606;DHT22;36557;53.572;10.170;2023-02-28T00:32:03;2.20;99.90
50606;DHT22;36557;53.572;10.170;2023-02-28T00:34:29;2.20;99.90
50606;DHT22;36557;53.572;10.170;2023-02-28T00:36:54;2.20;99.90
50606;DHT22;36557;53.572;10.170;2023-02-28T00:39:20;2.10;99.90
50606;DHT22;36557;53.572;10.170;2023-02-28T00:41:46;2.00;99.90
50606;DHT22;36557;53.572;10.170;2023-02-28T00:44:12;2.00;99.90
50606;DHT22;36557;53.572;10.170;2023-02-28T00:46:38;2.00;99.90
50606;DHT22;36557;53.572;10.170;2023-02-28T00:49:04;1.90;99.90
50606;DHT22;36557;53.572;10.170;2023-02-28T00:51:29;1.90;99.90
50606;DHT22;36557;53.572;10.170;2023-02-28T00:53:55;1.90;99.90
50606;DHT22;36557;53.572;10.170;2023-02-28T00:56:21;1.80;99.90
50606;DHT22;36557;53.572;10.170;2023-02-28T00:58:47;1.80;99.90
50606;DHT22;36557;53.572;10.170;2023-02-28T01:01:12;1.70;99.90
50606;DHT22;36557;53.572;10.170;2023-02-28T01:03:38;1.70;99.90
50606;DHT22;36557;53.572;10.170;2023-02-28T01:06:04;1.50;99.90
50606;DHT22;36557;53.572;10.170;2023-02-28T01:08:30;1.50;99.90
50606;DHT22;36557;53.572;10.170;2023-02-28T01:10:56;1.40;99.90
50606;DHT22;36557;53.572;10.170;2023-02-28T01:13:23;1.50;99.90
50606;DHT22;36557;53.572;10.170;2023-02-28T01:15:55;1.50;99.90
50606;DHT22;36557;53.572;10.170;2023-02-28T01:18:21;1.40;99.90
50606;DHT22;36557;53.572;10.170;2023-02-28T01:20:48;1.40;99.90
50606;DHT22;36557;53.572;10.170;2023-02-28T01:23:14;1.40;99.90
50606;DHT22;36557;53.572;10.170;2023-02-28T01:25:41;1.40;99.90
50606;DHT22;36557;53.572;10.170;2023-02-28T01:28:07;1.40;99.90
50606;DHT22;36557;53.572;10.170;2023-02-28T01:30:33;1.40;99.90
50606;DHT22;36557;53.572;10.170;2023-02-28T01:32:58;1.40;99.90
50606;DHT22;36557;53.572;10.170;2023-02-28T01:35:24;1.30;99.90
50606;DHT22;36557;53.572;10.170;2023-02-28T01:37:50;1.20;99.90
50606;DHT22;36557;53.572;10.170;2023-02-28T01:40:16;1.20;99.90
50606;DHT22;36557;53.572;10.170;2023-02-28T01:42:42;1.30;99.90
50606;DHT22;36557;53.572;10.170;2023-02-28T01:45:28;1.30;99.90
50606;DHT22;36557;53.572;10.170;2023-02-28T01:48:00;1.30;99.90
50606;DHT22;36557;53.572;10.170;2023-02-28T01:50:31;1.30;99.90
50606;DHT22;36557;53.572;10.170;2023-02-28T01:53:03;1.20;99.90
50606;DHT22;36557;53.572;10.170;2023-02-28T01:55:30;1.20;99.90
50606;DHT22;36557;53.572;10.170;2023-02-28T01:57:59;1.20;99.90
50606;DHT22;36557;53.572;10.170;2023-02-28T02:00:26;1.20;99.90
50606;DHT22;36557;53.572;10.170;2023-02-28T02:03:13;1.10;99.90
50606;DHT22;36557;53.572;10.170;2023-02-28T02:05:41;1.00;99.90
50606;DHT22;36557;53.572;10.170;2023-02-28T02:08:10;0.90;99.90
50606;DHT22;36557;53.572;10.170;2023-02-28T02:10:48;0.90;99.90
50606;DHT22;36557;53.572;10.170;2023-02-28T02:13:52;0.80;99.90
50606;DHT22;36557;53.572;10.170;2023-02-28T02:36:27;0.30;99.90
50606;DHT22;36557;53.572;10.170;2023-02-28T02:39:11;0.20;99.90
50606;DHT22;36557;53.572;10.170;2023-02-28T02:41:52;0.20;99.90
50606;DHT22;36557;53.572;10.170;2023-02-28T02:45:24;0.10;99.90
50606;DHT22;36557;53.572;10.170;2023-02-28T02:47:20;0.10;99.90
50606;DHT22;36557;53.572;10.170;2023-02-28T02:49:52;0.00;99.90
50606;DHT22;36557;53.572;10.170;2023-02-28T02:52:23;0.00;99.90
50606;DHT22;36557;53.572;10.170;2023-02-28T02:54:52;0.00;99.90
50606;DHT22;36557;53.572;10.170;2023-02-28T02:57:32;-0.10;99.90
50606;DHT22;36557;53.572;10.170;2023-02-28T02:59:59;-0.10;99.90
50606;DHT22;36557;53.572;10.170;2023-02-28T03:02:26;-0.20;99.90
50606;DHT22;36557;53.572;10.170;2023-02-28T03:04:59;-0.20;99.90
50606;DHT22;36557;53.572;10.170;2023-02-28T03:07:26;-0.20;99.90
50606;DHT22;36557;53.572;10.170;2023-02-28T03:09:54;-0.20;99.90
50606;DHT22;36557;53.572;10.170;2023-02-28T03:12:20;-0.30;99.90
50606;DHT22;36557;53.572;10.170;2023-02-28T03:28:15;-0.50;99.90
50606;DHT22;36557;53.572;10.170;2023-02-28T03:30:42;-0.50;99.90
50606;DHT22;36557;53.572;10.170;2023-02-28T03:33:20;-0.60;99.90
50606;DHT22;36557;53.572;10.170;2023-02-28T03:35:57;-0.60;99.90
50606;DHT22;36557;53.572;10.170;2023-02-28T03:41:14;-0.70;99.90
50606;DHT22;36557;53.572;10.170;2023-02-28T03:43:45;-0.80;99.90
50606;DHT22;36557;53.572;10.170;2023-02-28T03:46:16;-0.80;99.90
50606;DHT22;36557;53.572;10.170;2023-02-28T03:48:53;-0.90;99.90
50606;DHT22;36557;53.572;10.170;2023-02-28T03:51:23;-0.90;99.90
50606;DHT22;36557;53.572;10.170;2023-02-28T03:54:13;-0.90;99.90
50606;DHT22;36557;53.572;10.170;2023-02-28T03:57:10;-0.90;99.90
50606;DHT22;36557;53.572;10.170;2023-02-28T04:00:16;-1.00;99.90
50606;DHT22;36557;53.572;10.170;2023-02-28T04:02:22;-1.00;99.90
50606;DHT22;36557;53.572;10.170;2023-02-28T04:04:47;-1.00;99.90
50606;DHT22;36557;53.572;10.170;2023-02-28T04:07:14;-1.10;99.90
50606;DHT22;36557;53.572;10.170;2023-02-28T04:09:41;-1.10;99.90
50606;DHT22;36557;53.572;10.170;2023-02-28T04:12:07;-1.10;99.90
50606;DHT22;36557;53.572;10.170;2023-02-28T04:14:33;-1.10;99.90
50606;DHT22;36557;53.572;10.170;2023-02-28T04:19:25;-1.20;99.90
50606;DHT22;36557;53.572;10.170;2023-02-28T04:21:52;-1.20;99.90
50606;DHT22;36557;53.572;10.170;2023-02-28T04:24:24;-1.30;99.90
50606;DHT22;36557;53.572;10.170;2023-02-28T04:26:52;-1.30;99.90
50606;DHT22;36557;53.572;10.170;2023-02-28T04:29:27;-1.30;99.90
50606;DHT22;36557;53.572;10.170;2023-02-28T04:31:54;-1.30;99.90
50606;DHT22;36557;53.572;10.170;2023-02-28T04:34:23;-1.30;99.90
50606;DHT22;36557;53.572;10.170;2023-02-28T04:36:49;-1.30;99.90
50606;DHT22;36557;53.572;10.170;2023-02-28T04:39:17;-1.40;99.90
50606;DHT22;36557;53.572;10.170;2023-02-28T04:41:44;-1.40;99.90
50606;DHT22;36557;53.572;10.170;2023-02-28T04:44:11;-1.40;99.90
50606;DHT22;36557;53.572;10.170;2023-02-28T04:46:36;-1.40;99.90
50606;DHT22;36557;53.572;10.170;2023-02-28T04:49:02;-1.50;99.90
50606;DHT22;36557;53.572;10.170;2023-02-28T04:51:29;-1.60;99.90
50606;DHT22;36557;53.572;10.170;2023-02-28T04:53:55;-1.60;99.90
50606;DHT22;36557;53.572;10.170;2023-02-28T04:56:21;-1.60;99.90
50606;DHT22;36557;53.572;10.170;2023-02-28T04:58:48;-1.70;99.90
50606;DHT22;36557;53.572;10.170;2023-02-28T05:01:33;-1.60;99.90
50606;DHT22;36557;53.572;10.170;2023-02-28T05:04:00;-1.60;99.90
50606;DHT22;36557;53.572;10.170;2023-02-28T05:06:28;-1.70;99.90
50606;DHT22;36557;53.572;10.170;2023-02-28T05:08:55;-1.70;99.90
50606;DHT22;36557;53.572;10.170;2023-02-28T05:11:33;-1.70;99.90
50606;DHT22;36557;53.572;10.170;2023-02-28T05:14:04;-1.90;99.90
50606;DHT22;36557;53.572;10.170;2023-02-28T05:16:31;-1.90;99.90
50606;DHT22;36557;53.572;10.170;2023-02-28T05:18:57;-1.90;99.90
50606;DHT22;36557;53.572;10.170;2023-02-28T05:23:51;-1.90;99.90
50606;DHT22;36557;53.572;10.170;2023-02-28T05:26:17;-1.90;99.90
50606;DHT22;36557;53.572;10.170;2023-02-28T05:28:43;-1.90;99.90
50606;DHT22;36557;53.572;10.170;2023-02-28T05:31:11;-2.00;99.90
50606;DHT22;36557;53.572;10.170;2023-02-28T05:33:37;-2.00;99.90
50606;DHT22;36557;53.572;10.170;2023-02-28T05:36:03;-2.10;99.90
50606;DHT22;36557;53.572;10.170;2023-02-28T05:38:29;-2.20;99.90
50606;DHT22;36557;53.572;10.170;2023-02-28T05:40:55;-2.20;99.90
50606;DHT22;36557;53.572;10.170;2023-02-28T05:43:22;-2.20;99.90
50606;DHT22;36557;53.572;10.170;2023-02-28T05:45:48;-2.20;99.90
50606;DHT22;36557;53.572;10.170;2023-02-28T05:48:13;-2.20;99.90
50606;DHT22;36557;53.572;10.170;2023-02-28T05:50:39;-2.20;99.90
50606;DHT22;36557;53.572;10.170;2023-02-28T05:53:05;-2.20;99.90
50606;DHT22;36557;53.572;10.170;2023-02-28T05:55:31;-2.20;99.90
50606;DHT22;36557;53.572;10.170;2023-02-28T05:57:56;-2.20;99.90
50606;DHT22;36557;53.572;10.170;2023-02-28T06:00:22;-2.30;99.90
50606;DHT22;36557;53.572;10.170;2023-02-28T06:02:48;-2.30;99.90
50606;DHT22;36557;53.572;10.170;2023-02-28T06:05:16;-2.40;99.90
50606;DHT22;36557;53.572;10.170;2023-02-28T06:07:43;-2.40;99.90
50606;DHT22;36557;53.572;10.170;2023-02-28T06:10:10;-2.40;99.90
50606;DHT22;36557;53.572;10.170;2023-02-28T06:12:37;-2.40;99.90
50606;DHT22;36557;53.572;10.170;2023-02-28T06:15:03;-2.40;99.90
50606;DHT22;36557;53.572;10.170;2023-02-28T06:17:29;-2.40;99.90
50606;DHT22;36557;53.572;10.170;2023-02-28T06:19:55;-2.40;99.90
50606;DHT22;36557;53.572;10.170;2023-02-28T06:22:21;-2.30;99.90
50606;DHT22;36557;53.572;10.170;2023-02-28T06:24:46;-2.40;99.90
50606;DHT22;36557;53.572;10.170;2023-02-28T06:27:13;-2.30;99.90
50606;DHT22;36557;53.572;10.170;2023-02-28T06:29:38;-2.30;99.90
50606;DHT22;36557;53.572;10.170;2023-02-28T06:32:07;-2.30;99.90
50606;DHT22;36557;53.572;10.170;2023-02-28T06:34:33;-2.30;99.90
50606;DHT22;36557;53.572;10.170;2023-02-28T06:36:59;-2.30;99.90
50606;DHT22;36557;53.572;10.170;2023-02-28T06:39:29;-2.30;99.90
50606;DHT22;36557;53.572;10.170;2023-02-28T06:41:55;-2.30;99.90
50606;DHT22;36557;53.572;10.170;2023-02-28T06:44:21;-2.30;99.90
50606;DHT22;36557;53.572;10.170;2023-02-28T06:46:48;-2.30;99.90
50606;DHT22;36557;53.572;10.170;2023-02-28T06:49:14;-2.30;99.90
50606;DHT22;36557;53.572;10.170;2023-02-28T06:51:43;-2.20;99.90
50606;DHT22;36557;53.572;10.170;2023-02-28T06:54:12;-2.20;99.90
50606;DHT22;36557;53.572;10.170;2023-02-28T06:56:38;-2.10;99.90
50606;DHT22;36557;53.572;10.170;2023-02-28T06:59:04;-2.10;99.90
50606;DHT22;36557;53.572;10.170;2023-02-28T07:01:30;-2.10;99.90
50606;DHT22;36557;53.572;10.170;2023-02-28T07:03:58;-2.10;99.90
50606;DHT22;36557;53.572;10.170;2023-02-28T07:06:25;-2.00;99.90
50606;DHT22;36557;53.572;10.170;2023-02-28T07:08:52;-2.00;99.90
50606;DHT22;36557;53.572;10.170;2023-02-28T07:11:19;-2.00;99.90
50606;DHT22;36557;53.572;10.170;2023-02-28T07:13:46;-1.80;99.90
50606;DHT22;36557;53.572;10.170;2023-02-28T07:16:13;-1.70;99.90
50606;DHT22;36557;53.572;10.170;2023-02-28T07:18:39;-1.70;99.90
50606;DHT22;36557;53.572;10.170;2023-02-28T07:21:07;-1.60;99.90
50606;DHT22;36557;53.572;10.170;2023-02-28T07:23:34;-1.50;99.90
50606;DHT22;36557;53.572;10.170;2023-02-28T07:26:00;-1.40;99.90
50606;DHT22;36557;53.572;10.170;2023-02-28T07:28:26;-1.30;99.90
50606;DHT22;36557;53.572;10.170;2023-02-28T07:30:52;-1.20;99.90
50606;DHT22;36557;53.572;10.170;2023-02-28T07:33:18;-1.10;99.90
50606;DHT22;36557;53.572;10.170;2023-02-28T07:35:44;-1.00;99.90
50606;DHT22;36557;53.572;10.170;2023-02-28T07:38:10;-1.00;99.90
50606;DHT22;36557;53.572;10.170;2023-02-28T07:40:36;-0.90;99.90
50606;DHT22;36557;53.572;10.170;2023-02-28T08:02:35;-0.10;99.90
50606;DHT22;36557;53.572;10.170;2023-02-28T08:05:05;-0.10;99.90
50606;DHT22;36557;53.572;10.170;2023-02-28T08:07:31;-0.10;99.90
50606;DHT22;36557;53.572;10.170;2023-02-28T08:09:58;0.00;99.90
50606;DHT22;36557;53.572;10.170;2023-02-28T08:12:24;0.10;99.90
50606;DHT22;36557;53.572;10.170;2023-02-28T08:14:50;0.20;99.90
50606;DHT22;36557;53.572;10.170;2023-02-28T08:17:15;0.40;99.90
50606;DHT22;36557;53.572;10.170;2023-02-28T08:19:41;0.50;99.90
50606;DHT22;36557;53.572;10.170;2023-02-28T08:22:07;0.60;99.90
50606;DHT22;36557;53.572;10.170;2023-02-28T08:24:33;0.80;99.90
50606;DHT22;36557;53.572;10.170;2023-02-28T08:26:59;0.80;99.90
50606;DHT22;36557;53.572;10.170;2023-02-28T08:29:24;0.90;99.90
50606;DHT22;36557;53.572;10.170;2023-02-28T08:31:50;1.10;99.90
50606;DHT22;36557;53.572;10.170;2023-02-28T08:34:16;1.20;99.90
50606;DHT22;36557;53.572;10.170;2023-02-28T08:36:43;1.30;99.90
50606;DHT22;36557;53.572;10.170;2023-02-28T08:39:10;1.40;99.90
50606;DHT22;36557;53.572;10.170;2023-02-28T08:41:36;1.50;99.90
50606;DHT22;36557;53.572;10.170;2023-02-28T08:44:02;1.60;99.90
50606;DHT22;36557;53.572;10.170;2023-02-28T08:46:28;1.70;99.90
50606;DHT22;36557;53.572;10.170;2023-02-28T08:48:55;1.80;99.90
50606;DHT22;36557;53.572;10.170;2023-02-28T08:51:22;1.90;99.90
50606;DHT22;36557;53.572;10.170;2023-02-28T08:53:53;2.00;99.90
50606;DHT22;36557;53.572;10.170;2023-02-28T08:56:19;2.20;99.90
50606;DHT22;36557;53.572;10.170;2023-02-28T08:58:46;2.30;99.90
50606;DHT22;36557;53.572;10.170;2023-02-28T09:01:17;2.40;99.90
50606;DHT22;36557;53.572;10.170;2023-02-28T09:03:43;2.50;99.90
50606;DHT22;36557;53.572;10.170;2023-02-28T09:06:10;2.60;99.90
50606;DHT22;36557;53.572;10.170;2023-02-28T09:08:37;2.70;99.90
50606;DHT22;36557;53.572;10.170;2023-02-28T09:11:03;2.80;99.90
50606;DHT22;36557;53.572;10.170;2023-02-28T09:13:29;3.00;99.90
50606;DHT22;36557;53.572;10.170;2023-02-28T09:15:58;3.10;99.90
50606;DHT22;36557;53.572;10.170;2023-02-28T09:18:24;3.10;99.90
50606;DHT22;36557;53.572;10.170;2023-02-28T09:20:50;3.20;99.90
50606;DHT22;36557;53.572;10.170;2023-02-28T09:23:16;3.30;99.90
50606;DHT22;36557;53.572;10.170;2023-02-28T09:25:53;3.40;99.90
50606;DHT22;36557;53.572;10.170;2023-02-28T09:28:20;3.50;99.90
50606;DHT22;36557;53.572;10.170;2023-02-28T09:30:48;3.60;99.90
50606;DHT22;36557;53.572;10.170;2023-02-28T09:33:14;3.70;99.90
50606;DHT22;36557;53.572;10.170;2023-02-28T09:35:41;3.80;99.90
50606;DHT22;36557;53.572;10.170;2023-02-28T09:38:07;4.00;99.90
50606;DHT22;36557;53.572;10.170;2023-02-28T09:40:56;4.10;99.90
50606;DHT22;36557;53.572;10.170;2023-02-28T09:43:23;4.20;99.90
50606;DHT22;36557;53.572;10.170;2023-02-28T09:48:29;4.20;99.90
50606;DHT22;36557;53.572;10.170;2023-02-28T09:51:09;4.30;99.90
50606;DHT22;36557;53.572;10.170;2023-02-28T09:53:37;4.40;99.90
50606;DHT22;36557;53.572;10.170;2023-02-28T09:56:09;4.30;99.80
50606;DHT22;36557;53.572;10.170;2023-02-28T10:01:12;4.60;99.90
50606;DHT22;36557;53.572;10.170;2023-02-28T10:04:08;4.80;99.70
50606;DHT22;36557;53.572;10.170;2023-02-28T10:06:46;4.80;99.90
50606;DHT22;36557;53.572;10.170;2023-02-28T10:09:19;4.90;99.90
50606;DHT22;36557;53.572;10.170;2023-02-28T10:11:49;5.00;98.40
50606;DHT22;36557;53.572;10.170;2023-02-28T10:14:21;4.90;98.10
50606;DHT22;36557;53.572;10.170;2023-02-28T10:16:56;4.90;98.40
50606;DHT22;36557;53.572;10.170;2023-02-28T10:19:40;5.00;97.30
50606;DHT22;36557;53.572;10.170;2023-02-28T10:22:11;4.80;97.00
50606;DHT22;36557;53.572;10.170;2023-02-28T10:24:41;4.90;98.60
50606;DHT22;36557;53.572;10.170;2023-02-28T10:27:17;5.10;99.30
50606;DHT22;36557;53.572;10.170;2023-02-28T10:29:46;5.20;99.70
50606;DHT22;36557;53.572;10.170;2023-02-28T10:32:17;5.20;98.30
50606;DHT22;36557;53.572;10.170;2023-02-28T10:34:44;5.40;99.10
50606;DHT22;36557;53.572;10.170;2023-02-28T10:37:11;5.50;99.90
50606;DHT22;36557;53.572;10.170;2023-02-28T10:39:41;5.60;98.90
50606;DHT22;36557;53.572;10.170;2023-02-28T10:44:47;5.90;99.60
50606;DHT22;36557;53.572;10.170;2023-02-28T10:47:17;5.90;99.70
50606;DHT22;36557;53.572;10.170;2023-02-28T10:49:49;5.80;96.80
50606;DHT22;36557;53.572;10.170;2023-02-28T10:52:36;5.90;97.50
50606;DHT22;36557;53.572;10.170;2023-02-28T10:55:35;6.00;98.60
50606;DHT22;36557;53.572;10.170;2023-02-28T10:58:00;6.20;99.80
50606;DHT22;36557;53.572;10.170;2023-02-28T11:00:33;6.00;95.10
50606;DHT22;36557;53.572;10.170;2023-02-28T11:02:59;6.10;96.50
50606;DHT22;36557;53.572;10.170;2023-02-28T11:05:31;5.80;94.80
50606;DHT22;36557;53.572;10.170;2023-02-28T11:08:16;5.80;95.00
50606;DHT22;36557;53.572;10.170;2023-02-28T11:10:54;5.90;94.00
50606;DHT22;36557;53.572;10.170;2023-02-28T11:13:24;6.00;94.80
50606;DHT22;36557;53.572;10.170;2023-02-28T11:15:55;6.40;97.80
50606;DHT22;36557;53.572;10.170;2023-02-28T11:18:28;6.50;96.60
50606;DHT22;36557;53.572;10.170;2023-02-28T11:20:56;6.80;98.00
50606;DHT22;36557;53.572;10.170;2023-02-28T11:23:25;6.90;96.20
50606;DHT22;36557;53.572;10.170;2023-02-28T11:25:55;6.60;92.60
50606;DHT22;36557;53.572;10.170;2023-02-28T11:28:26;6.30;92.60
50606;DHT22;36557;53.572;10.170;2023-02-28T11:33:54;6.50;94.30
50606;DHT22;36557;53.572;10.170;2023-02-28T11:38:47;6.70;95.20
50606;DHT22;36557;53.572;10.170;2023-02-28T11:50:12;7.00;93.90
50606;DHT22;36557;53.572;10.170;2023-02-28T11:53:03;7.40;97.10
50606;DHT22;36557;53.572;10.170;2023-02-28T11:55:39;7.50;95.90
50606;DHT22;36557;53.572;10.170;2023-02-28T11:58:23;8.10;96.60
50606;DHT22;36557;53.572;10.170;2023-02-28T12:06:28;7.50;92.20
50606;DHT22;36557;53.572;10.170;2023-02-28T12:14:46;7.20;87.60
50606;DHT22;36557;53.572;10.170;2023-02-28T12:17:22;7.40;90.20
50606;DHT22;36557;53.572;10.170;2023-02-28T12:27:45;7.80;88.90
50606;DHT22;36557;53.572;10.170;2023-02-28T12:30:27;8.10;91.10
50606;DHT22;36557;53.572;10.170;2023-02-28T12:33:09;8.10;87.00
50606;DHT22;36557;53.572;10.170;2023-02-28T12:38:17;7.50;82.90
50606;DHT22;36557;53.572;10.170;2023-02-28T12:41:33;7.30;84.70
50606;DHT22;36557;53.572;10.170;2023-02-28T12:43:36;7.20;84.10
50606;DHT22;36557;53.572;10.170;2023-02-28T12:48:55;7.90;90.40
50606;DHT22;36557;53.572;10.170;2023-02-28T12:51:24;7.80;83.50
50606;DHT22;36557;53.572;10.170;2023-02-28T12:54:21;8.10;90.10
50606;DHT22;36557;53.572;10.170;2023-02-28T12:59:55;7.80;88.10
50606;DHT22;36557;53.572;10.170;2023-02-28T13:05:54;7.70;84.40
50606;DHT22;36557;53.572;10.170;2023-02-28T13:11:27;7.20;75.80
50606;DHT22;36557;53.572;10.170;2023-02-28T13:13:59;7.10;74.60
50606;DHT22;36557;53.572;10.170;2023-02-28T13:16:25;7.00;76.50
50606;DHT22;36557;53.572;10.170;2023-02-28T13:18:51;7.10;76.60
50606;DHT22;36557;53.572;10.170;2023-02-28T13:21:29;7.40;80.20
50606;DHT22;36557;53.572;10.170;2023-02-28T13:29:04;7.30;77.60
50606;DHT22;36557;53.572;10.170;2023-02-28T13:50:21;7.60;77.10
50606;DHT22;36557;53.572;10.170;2023-02-28T13:59:19;7.60;76.50
50606;DHT22;36557;53.572;10.170;2023-02-28T14:04:43;7.90;80.10
50606;DHT22;36557;53.572;10.170;2023-02-28T14:07:21;7.80;79.90
50606;DHT22;36557;53.572;10.170;2023-02-28T14:09:59;7.40;75.00
50606;DHT22;36557;53.572;10.170;2023-02-28T14:20:41;7.30;78.50
50606;DHT22;36557;53.572;10.170;2023-02-28T14:26:10;7.20;77.90
50606;DHT22;36557;53.572;10.170;2023-02-28T14:29:01;7.10;78.30
50606;DHT22;36557;53.572;10.170;2023-02-28T14:32:01;7.20;79.90
50606;DHT22;36557;53.572;10.170;2023-02-28T14:34:54;7.10;79.30
50606;DHT22;36557;53.572;10.170;2023-02-28T14:37:28;7.30;81.70
50606;DHT22;36557;53.572;10.170;2023-02-28T14:39:55;7.40;84.30
50606;DHT22;36557;53.572;10.170;2023-02-28T14:42:33;7.50;84.50
50606;DHT22;36557;53.572;10.170;2023-02-28T14:44:59;7.50;80.40
50606;DHT22;36557;53.572;10.170;2023-02-28T14:47:29;7.40;80.70
50606;DHT22;36557;53.572;10.170;2023-02-28T14:49:57;7.30;79.00
50606;DHT22;36557;53.572;10.170;2023-02-28T14:52:28;7.20;82.10
50606;DHT22;36557;53.572;10.170;2023-02-28T14:55:05;7.20;80.20
50606;DHT22;36557;53.572;10.170;2023-02-28T14:57:41;7.20;85.10
50606;DHT22;36557;53.572;10.170;2023-02-28T15:00:16;7.10;82.40
50606;DHT22;36557;53.572;10.170;2023-02-28T15:02:43;7.00;82.50
50606;DHT22;36557;53.572;10.170;2023-02-28T15:07:46;7.00;86.30
50606;DHT22;36557;53.572;10.170;2023-02-28T15:10:18;7.00;85.50
50606;DHT22;36557;53.572;10.170;2023-02-28T15:13:05;6.90;85.00
50606;DHT22;36557;53.572;10.170;2023-02-28T15:16:03;7.00;86.20
50606;DHT22;36557;53.572;10.170;2023-02-28T15:18:48;6.90;86.30
50606;DHT22;36557;53.572;10.170;2023-02-28T15:21:17;6.70;87.90
50606;DHT22;36557;53.572;10.170;2023-02-28T15:23:46;6.70;85.40
50606;DHT22;36557;53.572;10.170;2023-02-28T15:26:19;6.70;88.90
50606;DHT22;36557;53.572;10.170;2023-02-28T15:28:46;6.70;86.60
50606;DHT22;36557;53.572;10.170;2023-02-28T15:33:54;6.60;87.50
50606;DHT22;36557;53.572;10.170;2023-02-28T15:36:20;6.50;86.00
50606;DHT22;36557;53.572;10.170;2023-02-28T15:38:51;6.50;87.90
50606;DHT22;36557;53.572;10.170;2023-02-28T15:41:35;6.50;89.30
50606;DHT22;36557;53.572;10.170;2023-02-28T15:44:27;6.40;87.10
50606;DHT22;36557;53.572;10.170;2023-02-28T15:47:03;6.30;84.00
50606;DHT22;36557;53.572;10.170;2023-02-28T15:49:34;6.20;87.10
50606;DHT22;36557;53.572;10.170;2023-02-28T15:52:02;6.20;86.10
50606;DHT22;36557;53.572;10.170;2023-02-28T15:54:32;6.10;85.20
50606;DHT22;36557;53.572;10.170;2023-02-28T15:57:05;6.10;87.20
50606;DHT22;36557;53.572;10.170;2023-02-28T15:59:35;6.10;90.10
50606;DHT22;36557;53.572;10.170;2023-02-28T16:02:17;6.00;86.50
50606;DHT22;36557;53.572;10.170;2023-02-28T16:07:24;5.90;87.70
50606;DHT22;36557;53.572;10.170;2023-02-28T16:09:50;5.80;88.20
50606;DHT22;36557;53.572;10.170;2023-02-28T16:12:16;5.70;91.10
50606;DHT22;36557;53.572;10.170;2023-02-28T16:14:42;5.70;90.70
50606;DHT22;36557;53.572;10.170;2023-02-28T16:17:33;5.60;90.00
50606;DHT22;36557;53.572;10.170;2023-02-28T16:19:59;5.60;91.30
50606;DHT22;36557;53.572;10.170;2023-02-28T16:22:25;5.60;90.60
50606;DHT22;36557;53.572;10.170;2023-02-28T16:24:51;5.50;91.80
50606;DHT22;36557;53.572;10.170;2023-02-28T16:27:25;5.50;90.30
50606;DHT22;36557;53.572;10.170;2023-02-28T16:29:52;5.50;90.50
50606;DHT22;36557;53.572;10.170;2023-02-28T16:32:18;5.30;90.70
50606;DHT22;36557;53.572;10.170;2023-02-28T16:34:44;5.20;90.90
50606;DHT22;36557;53.572;10.170;2023-02-28T16:37:16;5.20;91.20
50606;DHT22;36557;53.572;10.170;2023-02-28T16:39:43;5.10;91.10
50606;DHT22;36557;53.572;10.170;2023-02-28T16:42:27;5.00;91.50
50606;DHT22;36557;53.572;10.170;2023-02-28T16:44:54;5.00;92.50
50606;DHT22;36557;53.572;10.170;2023-02-28T16:47:21;4.80;94.00
50606;DHT22;36557;53.572;10.170;2023-02-28T16:49:47;4.70;93.80
50606;DHT22;36557;53.572;10.170;2023-02-28T16:52:13;4.60;94.00
50606;DHT22;36557;53.572;10.170;2023-02-28T16:54:40;4.40;93.70
50606;DHT22;36557;53.572;10.170;2023-02-28T16:57:12;4.40;94.30
50606;DHT22;36557;53.572;10.170;2023-02-28T16:59:40;4.40;94.30
50606;DHT22;36557;53.572;10.170;2023-02-28T17:02:14;4.30;94.70
50606;DHT22;36557;53.572;10.170;2023-02-28T17:04:40;4.20;95.30
50606;DHT22;36557;53.572;10.170;2023-02-28T17:07:12;4.10;95.20
50606;DHT22;36557;53.572;10.170;2023-02-28T17:09:38;4.10;95.80
50606;DHT22;36557;53.572;10.170;2023-02-28T17:12:04;4.00;96.00
50606;DHT22;36557;53.572;10.170;2023-02-28T17:14:30;4.00;96.50
50606;DHT22;36557;53.572;10.170;2023-02-28T17:16:56;4.00;96.70
50606;DHT22;36557;53.572;10.170;2023-02-28T17:19:22;3.90;96.50
50606;DHT22;36557;53.572;10.170;2023-02-28T17:21:49;3.80;96.60
50606;DHT22;36557;53.572;10.170;2023-02-28T17:24:15;3.70;96.90
50606;DHT22;36557;53.572;10.170;2023-02-28T17:26:42;3.70;97.30
50606;DHT22;36557;53.572;10.170;2023-02-28T17:29:34;3.60;97.40
50606;DHT22;36557;53.572;10.170;2023-02-28T17:31:59;3.50;97.80
50606;DHT22;36557;53.572;10.170;2023-02-28T17:34:25;3.40;98.40
50606;DHT22;36557;53.572;10.170;2023-02-28T17:36:51;3.30;98.80
50606;DHT22;36557;53.572;10.170;2023-02-28T17:39:18;3.30;99.20
50606;DHT22;36557;53.572;10.170;2023-02-28T17:41:53;3.20;99.40
50606;DHT22;36557;53.572;10.170;2023-02-28T17:44:20;3.20;99.70
50606;DHT22;36557;53.572;10.170;2023-02-28T17:46:46;3.20;99.90
50606;DHT22;36557;53.572;10.170;2023-02-28T17:49:13;3.00;99.90
50606;DHT22;36557;53.572;10.170;2023-02-28T17:51:39;2.90;99.90
50606;DHT22;36557;53.572;10.170;2023-02-28T17:54:04;2.90;99.90
50606;DHT22;36557;53.572;10.170;2023-02-28T17:56:30;2.80;99.90
50606;DHT22;36557;53.572;10.170;2023-02-28T17:58:58;2.80;99.90
50606;DHT22;36557;53.572;10.170;2023-02-28T18:01:24;2.70;99.90
50606;DHT22;36557;53.572;10.170;2023-02-28T18:03:53;2.70;99.90
50606;DHT22;36557;53.572;10.170;2023-02-28T18:06:22;2.70;99.90
50606;DHT22;36557;53.572;10.170;2023-02-28T18:08:49;2.70;99.90
50606;DHT22;36557;53.572;10.170;2023-02-28T18:11:17;2.60;99.90
50606;DHT22;36557;53.572;10.170;2023-02-28T18:13:48;2.40;99.90
50606;DHT22;36557;53.572;10.170;2023-02-28T18:16:15;2.40;99.90
50606;DHT22;36557;53.572;10.170;2023-02-28T18:18:42;2.40;99.90
50606;DHT22;36557;53.572;10.170;2023-02-28T18:21:09;2.30;99.90
50606;DHT22;36557;53.572;10.170;2023-02-28T18:23:35;2.30;99.90
50606;DHT22;36557;53.572;10.170;2023-02-28T18:26:04;2.20;99.90
50606;DHT22;36557;53.572;10.170;2023-02-28T18:28:31;2.20;99.90
50606;DHT22;36557;53.572;10.170;2023-02-28T18:31:08;2.10;99.90
50606;DHT22;36557;53.572;10.170;2023-02-28T18:33:34;2.00;99.90